Time;durP1;ratioP1;P1;durP2;ratioP2;P2;SDS_P1;SDS_P2;PMS_P1;PMS_P2;Temp;Humidity;BMP_temperature;BMP_pressure;BME280_temperature;BME280_humidity;BME280_pressure;Samples;Min_cycle;Max_cycle;Signal;HPM_P1;HPM_P2
2024/02/23 00:01:58;;;;;;;;;;;;;;;17.47;43.35;96867.38;10201013;28;1894;-70
2024/02/23 00:06:54;;;;;;;;;;;;;;;17.47;43.18;96892.88;10201324;28;783;-70
2024/02/23 00:11:50;;;;;;;;;;;;;;;17.46;43.04;96913.13;10200612;28;849;-70
2024/02/23 00:16:46;;;;;;;;;;;;;;;17.46;43.00;96941.25;10201057;28;822;-70
2024/02/23 00:21:42;;;;;;;;;;;;;;;17.45;43.36;96963.31;10200411;28;1897;-70
2024/02/23 00:26:38;;;;;;;;;;;;;;;17.45;42.82;96976.47;10200389;28;920;-70
2024/02/23 00:31:34;;;;;;;;;;;;;;;17.44;43.25;96982.69;10199803;28;1159;-70
2024/02/23 00:36:30;;;;;;;;;;;;;;;17.44;43.47;97006.38;10199891;28;1002;-70
2024/02/23 00:41:26;;;;;;;;;;;;;;;17.43;43.38;97023.16;10199691;28;1952;-70
2024/02/23 00:46:22;;;;;;;;;;;;;;;17.44;43.52;97038.00;10199571;28;927;-70
2024/02/23 00:51:17;;;;;;;;;;;;;;;17.43;43.53;97049.50;10199651;28;783;-70
2024/02/23 00:56:13;;;;;;;;;;;;;;;17.43;43.61;97073.19;10199872;28;836;-70
2024/02/23 01:01:09;;;;;;;;;;;;;;;17.43;43.56;97065.28;10198827;28;1965;-70
2024/02/23 01:06:05;;;;;;;;;;;;;;;17.43;43.84;97078.47;10198961;28;799;-70
2024/02/23 01:11:01;;;;;;;;;;;;;;;17.43;43.60;97091.63;10199311;28;829;-70
2024/02/23 01:15:57;;;;;;;;;;;;;;;17.43;43.36;97102.16;10198672;28;914;-70
2024/02/23 01:20:53;;;;;;;;;;;;;;;17.41;43.41;97107.53;10198550;28;1973;-70
2024/02/23 01:25:49;;;;;;;;;;;;;;;17.39;43.29;97122.63;10198425;28;865;-70
2024/02/23 01:30:44;;;;;;;;;;;;;;;17.39;43.36;97138.44;10198865;28;1173;-70
2024/02/23 01:35:40;;;;;;;;;;;;;;;17.38;43.34;97138.56;10198755;28;941;-70
2024/02/23 01:40:36;;;;;;;;;;;;;;;17.38;43.22;97134.13;10197951;28;1981;-70
2024/02/23 01:45:32;;;;;;;;;;;;;;;17.37;43.20;97140.38;10197816;28;798;-70
2024/02/23 01:50:28;;;;;;;;;;;;;;;17.36;43.38;97149.22;10198316;28;842;-70
2024/02/23 01:55:24;;;;;;;;;;;;;;;17.36;43.35;97137.84;10198249;28;802;-70
2024/02/23 02:00:20;;;;;;;;;;;;;;;17.35;43.33;97155.47;10197487;28;1906;-70
2024/02/23 02:05:16;;;;;;;;;;;;;;;17.34;43.27;97145.03;10197936;28;932;-70
2024/02/23 02:10:12;;;;;;;;;;;;;;;17.33;43.23;97164.44;10201297;28;852;-70
2024/02/23 02:15:08;;;;;;;;;;;;;;;17.33;43.19;97164.44;10204269;28;834;-70
2024/02/23 02:20:07;;;;;;;;;;;;;;;17.31;43.24;97168.03;10204406;28;1898;-70
2024/02/23 02:25:04;;;;;;;;;;;;;;;17.31;43.06;97177.72;10204871;28;885;-70
2024/02/23 02:29:59;;;;;;;;;;;;;;;17.30;43.04;97179.53;10204456;28;1371;-70
2024/02/23 02:34:55;;;;;;;;;;;;;;;17.29;43.16;97172.59;10203682;28;835;-70
2024/02/23 02:39:51;;;;;;;;;;;;;;;17.28;42.99;97173.53;10203478;28;1914;-70
2024/02/23 02:44:47;;;;;;;;;;;;;;;17.27;42.86;97177.16;10203374;28;869;-70
2024/02/23 02:49:43;;;;;;;;;;;;;;;17.26;42.88;97186.00;10203742;28;902;-70
2024/02/23 02:54:39;;;;;;;;;;;;;;;17.26;42.92;97195.69;10203662;28;806;-70
2024/02/23 02:59:35;;;;;;;;;;;;;;;17.25;42.89;97221.19;10202821;28;1894;-70
2024/02/23 03:04:31;;;;;;;;;;;;;;;17.24;42.80;97224.78;10202592;28;876;-70
2024/02/23 03:09:27;;;;;;;;;;;;;;;17.24;42.62;97219.53;10203373;28;1000;-70
2024/02/23 03:14:23;;;;;;;;;;;;;;;17.23;42.73;97224.91;10202387;28;727;-70
2024/02/23 03:19:22;;;;;;;;;;;;;;;17.21;43.03;97243.47;10202422;28;1894;-70
2024/02/23 03:24:18;;;;;;;;;;;;;;;17.21;42.75;97235.56;10201389;28;920;-70
2024/02/23 03:29:14;;;;;;;;;;;;;;;17.20;42.70;97249.69;10201536;28;1154;-70
2024/02/23 03:34:10;;;;;;;;;;;;;;;17.19;42.69;97250.66;10201805;28;807;-70
2024/02/23 03:39:05;;;;;;;;;;;;;;;17.19;42.73;97257.72;10201608;28;1977;-70
2024/02/23 03:44:01;;;;;;;;;;;;;;;17.18;42.54;97263.91;10200946;28;877;-70
2024/02/23 03:48:57;;;;;;;;;;;;;;;17.18;42.53;97250.75;10201520;28;881;-70
2024/02/23 03:53:54;;;;;;;;;;;;;;;17.16;42.68;97257.94;10201131;28;878;-70
2024/02/23 03:58:50;;;;;;;;;;;;;;;17.15;42.33;97262.38;10201536;28;1898;-70
2024/02/23 04:03:45;;;;;;;;;;;;;;;17.15;42.38;97267.63;10200916;28;847;-70
2024/02/23 04:08:41;;;;;;;;;;;;;;;17.15;42.50;97272.91;10200157;28;1169;-70
2024/02/23 04:13:37;;;;;;;;;;;;;;;17.14;42.41;97291.47;10200594;28;776;-70
2024/02/23 04:18:33;;;;;;;;;;;;;;;17.12;42.56;97288.09;10200442;28;1902;-70
2024/02/23 04:23:29;;;;;;;;;;;;;;;17.12;42.14;97296.00;10200870;28;873;-70
2024/02/23 04:28:26;;;;;;;;;;;;;;;17.10;42.40;97304.00;10200490;28;1503;-69
2024/02/23 04:33:22;;;;;;;;;;;;;;;17.09;42.35;97297.09;10198893;28;984;-70
2024/02/23 04:38:18;;;;;;;;;;;;;;;17.09;42.29;97304.97;10199760;28;897;-70
2024/02/23 04:43:14;;;;;;;;;;;;;;;17.09;42.14;97297.09;10199635;28;1960;-70
2024/02/23 04:48:10;;;;;;;;;;;;;;;17.11;42.28;97294.31;10199588;28;945;-70
2024/02/23 04:53:07;;;;;;;;;;;;;;;17.10;42.06;97311.91;10199446;28;762;-70
2024/02/23 04:58:03;;;;;;;;;;;;;;;17.11;42.09;97304.84;10199836;28;779;-70
2024/02/23 05:02:59;;;;;;;;;;;;;;;17.12;42.18;97306.53;10199692;28;1907;-70
2024/02/23 05:07:55;;;;;;;;;;;;;;;17.11;42.21;97313.59;10198961;28;949;-70
2024/02/23 05:12:51;;;;;;;;;;;;;;;17.13;42.08;97306.41;10199398;28;906;-70
2024/02/23 05:17:47;;;;;;;;;;;;;;;17.15;42.09;97308.91;10198599;28;877;-70
2024/02/23 05:22:43;;;;;;;;;;;;;;;17.16;42.17;97311.44;10198747;28;1945;-70
2024/02/23 05:27:39;;;;;;;;;;;;;;;17.16;42.32;97306.19;10198795;28;905;-70
2024/02/23 05:32:35;;;;;;;;;;;;;;;17.18;42.12;97306.03;10198629;28;1167;-70
2024/02/23 05:37:30;;;;;;;;;;;;;;;17.18;42.10;97284.97;10198068;28;1047;-70
2024/02/23 05:42:26;;;;;;;;;;;;;;;17.20;42.13;97306.75;10197890;28;1974;-71
2024/02/23 05:47:22;;;;;;;;;;;;;;;17.21;42.15;97303.16;10210554;28;849;-70
2024/02/23 05:52:18;;;;;;;;;;;;;;;17.20;42.08;97304.97;10211087;28;767;-70
2024/02/23 05:57:14;;;;;;;;;;;;;;;17.22;42.40;97303.03;10211514;28;866;-70
2024/02/23 06:02:10;;;;;;;;;;;;;;;17.23;42.20;97303.88;10210700;28;1890;-70
2024/02/23 06:07:06;;;;;;;;;;;;;;;17.23;42.28;97296.81;10210669;28;973;-72
2024/02/23 06:12:02;;;;;;;;;;;;;;;17.25;42.21;97304.59;10211157;28;869;-70
2024/02/23 06:16:58;;;;;;;;;;;;;;;17.24;42.25;97314.31;10210357;28;880;-70
2024/02/23 06:21:54;;;;;;;;;;;;;;;17.25;42.21;97323.84;10211084;28;1887;-70
2024/02/23 06:26:51;;;;;;;;;;;;;;;17.26;42.18;97322.06;10210250;28;961;-72
2024/02/23 06:31:49;;;;;;;;;;;;;;;17.26;42.19;97320.25;10209753;28;1100;-71
2024/02/23 06:36:45;;;;;;;;;;;;;;;17.28;42.13;97328.03;10210278;28;791;-71
2024/02/23 06:41:41;;;;;;;;;;;;;;;17.30;42.50;97328.75;10210657;28;1910;-72
2024/02/23 06:46:37;;;;;;;;;;;;;;;17.30;42.56;97328.75;10210864;28;766;-71
2024/02/23 06:51:33;;;;;;;;;;;;;;;17.31;42.42;97336.53;10209868;28;820;-71
2024/02/23 06:56:29;;;;;;;;;;;;;;;17.31;42.72;97335.69;10204894;28;1032;-69
2024/02/23 07:01:25;;;;;;;;;;;;;;;17.33;42.69;97343.47;10202179;28;1890;-69
2024/02/23 07:06:21;;;;;;;;;;;;;;;17.33;42.65;97338.22;10202290;28;926;-69
2024/02/23 07:11:17;;;;;;;;;;;;;;;17.32;42.68;97340.00;10202533;28;844;-69
2024/02/23 07:16:13;;;;;;;;;;;;;;;17.31;42.71;97339.16;10202391;28;806;-69
2024/02/23 07:21:08;;;;;;;;;;;;;;;17.31;42.77;97331.25;10202148;28;1947;-69
2024/02/23 07:26:04;;;;;;;;;;;;;;;17.30;42.50;97345.38;10201433;28;917;-69
2024/02/23 07:31:00;;;;;;;;;;;;;;;17.31;42.49;97340.97;10201417;28;1417;-70
2024/02/23 07:35:56;;;;;;;;;;;;;;;17.30;42.49;97339.28;10201790;28;784;-70
2024/02/23 07:40:52;;;;;;;;;;;;;;;17.28;42.56;97326.25;10202467;28;1903;-69
2024/02/23 07:45:48;;;;;;;;;;;;;;;17.29;42.58;97327.06;10202106;28;925;-69
2024/02/23 07:50:44;;;;;;;;;;;;;;;17.30;42.74;97337.50;10200723;28;1296;-69
2024/02/23 07:55:40;;;;;;;;;;;;;;;17.30;42.63;97329.59;10200985;28;786;-69
2024/02/23 08:00:38;;;;;;;;;;;;;;;17.30;42.58;97332.22;10200973;28;1890;-69
2024/02/23 08:05:34;;;;;;;;;;;;;;;17.30;42.52;97345.38;10201523;28;873;-69
2024/02/23 08:10:30;;;;;;;;;;;;;;;17.30;42.56;97345.38;10200480;28;889;-69
2024/02/23 08:15:26;;;;;;;;;;;;;;;17.31;42.55;97351.50;10200653;28;776;-69
2024/02/23 08:20:23;;;;;;;;;;;;;;;17.32;42.42;97361.09;10201028;28;1890;-69
2024/02/23 08:25:19;;;;;;;;;;;;;;;17.34;42.56;97366.22;10200191;28;961;-69
2024/02/23 08:30:14;;;;;;;;;;;;;;;17.34;42.49;97360.94;10200189;28;1135;-69
2024/02/23 08:35:10;;;;;;;;;;;;;;;17.34;42.35;97368.84;10199972;28;778;-69
2024/02/23 08:40:06;;;;;;;;;;;;;;;17.34;42.40;97368.84;10200312;28;1910;-69
2024/02/23 08:45:02;;;;;;;;;;;;;;;17.33;42.06;97381.16;10199671;28;858;-69
2024/02/23 08:49:58;;;;;;;;;;;;;;;17.34;42.19;97380.19;10199527;28;922;-69
2024/02/23 08:54:54;;;;;;;;;;;;;;;17.35;42.41;97379.25;10199586;28;778;-69
2024/02/23 08:59:50;;;;;;;;;;;;;;;17.36;42.40;97395.88;10199158;28;1953;-69
2024/02/23 09:04:46;;;;;;;;;;;;;;;17.37;42.35;97381.75;10199100;28;867;-69
2024/02/23 09:09:42;;;;;;;;;;;;;;;17.38;42.41;97405.34;10199498;28;825;-69
2024/02/23 09:14:38;;;;;;;;;;;;;;;17.39;42.34;97390.38;10198742;28;947;-69
2024/02/23 09:19:34;;;;;;;;;;;;;;;17.39;42.41;97396.47;10199004;28;1902;-69
2024/02/23 09:24:30;;;;;;;;;;;;;;;17.39;42.20;97385.94;10198656;28;861;-69
2024/02/23 09:29:26;;;;;;;;;;;;;;;17.40;42.18;97390.28;10198182;28;1068;-69
2024/02/23 09:34:22;;;;;;;;;;;;;;;17.41;42.21;97405.09;10198423;28;864;-69
2024/02/23 09:39:18;;;;;;;;;;;;;;;17.41;42.38;97391.94;10198383;28;1964;-69
2024/02/23 09:44:13;;;;;;;;;;;;;;;17.43;42.09;97402.34;10198557;28;919;-69
2024/02/23 09:49:09;;;;;;;;;;;;;;;17.43;42.16;97413.72;10197854;28;759;-69
2024/02/23 09:54:05;;;;;;;;;;;;;;;17.42;42.15;97406.78;10198427;28;822;-68
2024/02/23 09:59:01;;;;;;;;;;;;;;;17.44;42.30;97404.03;10197840;28;1886;-71
2024/02/23 10:04:00;;;;;;;;;;;;;;;17.44;42.33;97412.75;10197498;28;798;-69
2024/02/23 10:08:56;;;;;;;;;;;;;;;17.46;42.34;97428.44;10198293;28;854;-70
2024/02/23 10:13:52;;;;;;;;;;;;;;;17.46;42.19;97417.91;10196700;28;1101;-69
2024/02/23 10:18:50;;;;;;;;;;;;;;;17.48;42.16;97416.00;10197666;28;1943;-69
2024/02/23 10:23:46;;;;;;;;;;;;;;;17.49;42.27;97415.84;10196429;28;1164;-72
2024/02/23 10:28:42;;;;;;;;;;;;;;;17.51;42.50;97418.38;10196922;28;1531;-69
2024/02/23 10:33:38;;;;;;;;;;;;;;;17.51;42.20;97426.28;10201902;28;797;-70
2024/02/23 10:38:34;;;;;;;;;;;;;;;17.51;42.19;97427.13;10204130;28;1683;-70
2024/02/23 10:43:31;;;;;;;;;;;;;;;17.53;42.09;97419.09;10203431;28;1907;-69
2024/02/23 10:48:26;;;;;;;;;;;;;;;17.54;42.33;97412.88;10203310;28;981;-69
2024/02/23 10:53:22;;;;;;;;;;;;;;;17.56;42.02;97408.31;10202563;28;1035;-68
2024/02/23 10:58:18;;;;;;;;;;;;;;;17.56;42.13;97413.59;10202907;28;782;-69
2024/02/23 11:03:14;;;;;;;;;;;;;;;17.54;42.15;97418.13;10203359;28;1961;-69
2024/02/23 11:08:10;;;;;;;;;;;;;;;17.56;41.88;97410.97;10203338;28;794;-69
2024/02/23 11:13:06;;;;;;;;;;;;;;;17.57;42.08;97404.72;10202686;28;905;-69
2024/02/23 11:18:02;;;;;;;;;;;;;;;17.59;42.16;97415.97;10202439;28;821;-69
2024/02/23 11:22:58;;;;;;;;;;;;;;;17.60;41.99;97419.44;10202091;28;1894;-70
2024/02/23 11:27:54;;;;;;;;;;;;;;;17.62;42.01;97405.19;10202132;28;866;-69
2024/02/23 11:32:54;;;;;;;;;;;;;;;17.63;41.83;97413.94;10202537;28;1374;-70
2024/02/23 11:37:52;;;;;;;;;;;;;;;17.63;41.85;97424.47;10201985;28;1107;-70
2024/02/23 11:42:47;;;;;;;;;;;;;;;17.60;41.95;97433.44;10200532;28;1998;-70
2024/02/23 11:47:43;;;;;;;;;;;;;;;17.60;42.24;97425.53;10201551;28;773;-69
2024/02/23 11:52:39;;;;;;;;;;;;;;;17.63;41.92;97414.78;10202020;28;861;-69
2024/02/23 11:57:35;;;;;;;;;;;;;;;17.63;42.01;97398.97;10201350;28;947;-70
2024/02/23 12:02:31;;;;;;;;;;;;;;;17.65;42.00;97396.22;10200921;28;1957;-69
2024/02/23 12:07:28;;;;;;;;;;;;;;;17.65;42.11;97397.03;10201475;28;947;-70
2024/02/23 12:12:24;;;;;;;;;;;;;;;17.65;41.97;97412.84;10199449;28;1125;-69
2024/02/23 12:17:20;;;;;;;;;;;;;;;17.67;41.87;97410.94;10200341;28;826;-69
2024/02/23 12:22:16;;;;;;;;;;;;;;;17.70;41.99;97405.41;10200093;28;1957;-69
2024/02/23 12:27:12;;;;;;;;;;;;;;;17.68;42.14;97402.09;10200239;28;872;-69
2024/02/23 12:32:08;;;;;;;;;;;;;;;17.69;41.95;97402.91;10200393;28;1272;-69
2024/02/23 12:37:05;;;;;;;;;;;;;;;17.66;42.18;97418.97;10200482;28;806;-68
2024/02/23 12:42:01;;;;;;;;;;;;;;;17.67;41.98;97421.47;10199402;28;1899;-69
2024/02/23 12:46:57;;;;;;;;;;;;;;;17.73;41.94;97407.78;10199458;28;877;-70
2024/02/23 12:51:53;;;;;;;;;;;;;;;17.79;42.17;97411.78;10199191;28;860;-68
2024/02/23 12:56:49;;;;;;;;;;;;;;;17.82;42.01;97401.00;10198785;28;892;-69
2024/02/23 13:01:45;;;;;;;;;;;;;;;17.78;42.32;97406.59;10199276;28;1882;-73
2024/02/23 13:06:42;;;;;;;;;;;;;;;17.77;42.48;97397.03;10200296;28;855;-69
2024/02/23 13:11:38;;;;;;;;;;;;;;;17.76;42.40;97406.72;10199096;28;885;-68
2024/02/23 13:16:33;;;;;;;;;;;;;;;17.75;42.23;97405.06;10198552;28;906;-68
2024/02/23 13:21:29;;;;;;;;;;;;;;;17.75;42.23;97400.63;10198942;28;1957;-70
2024/02/23 13:26:25;;;;;;;;;;;;;;;17.77;42.13;97411.03;10197567;28;873;-69
2024/02/23 13:31:21;;;;;;;;;;;;;;;17.80;42.15;97420.53;10198543;28;1088;-66
2024/02/23 13:36:17;;;;;;;;;;;;;;;17.80;41.96;97418.72;10198038;28;886;-69
2024/02/23 13:41:13;;;;;;;;;;;;;;;17.96;41.64;97410.41;10197237;28;1977;-69
2024/02/23 13:46:09;;;;;;;;;;;;;;;17.89;41.83;97422.41;10197664;28;949;-69
2024/02/23 13:51:05;;;;;;;;;;;;;;;18.00;41.58;97411.84;10197077;28;972;-69
2024/02/23 13:56:01;;;;;;;;;;;;;;;18.04;41.66;97423.81;10197244;28;766;-69
2024/02/23 14:00:57;;;;;;;;;;;;;;;17.96;41.89;97431.50;10197446;28;1886;-69
2024/02/23 14:05:53;;;;;;;;;;;;;;;18.10;41.50;97420.69;10199576;28;940;-69
2024/02/23 14:10:49;;;;;;;;;;;;;;;18.22;41.39;97439.09;10204102;28;1175;-69
2024/02/23 14:15:45;;;;;;;;;;;;;;;18.09;41.89;97450.63;10203593;28;1004;-69
2024/02/23 14:20:41;;;;;;;;;;;;;;;17.98;42.13;97450.69;10203786;28;1937;-69
2024/02/23 14:25:37;;;;;;;;;;;;;;;17.94;42.18;97463.25;10203733;28;842;-69
2024/02/23 14:30:32;;;;;;;;;;;;;;;17.92;42.08;97464.31;10204624;28;1291;-69
2024/02/23 14:35:28;;;;;;;;;;;;;;;17.90;42.29;97459.19;10204013;28;863;-70
2024/02/23 14:40:24;;;;;;;;;;;;;;;17.88;41.98;97455.84;10203236;28;1910;-70
2024/02/23 14:45:23;;;;;;;;;;;;;;;17.89;42.30;97459.31;10202533;28;849;-69
2024/02/23 14:50:19;;;;;;;;;;;;;;;17.88;42.24;97468.19;10202941;28;996;-69
2024/02/23 14:55:14;;;;;;;;;;;;;;;17.87;42.26;97469.16;10202845;28;928;-69
2024/02/23 15:00:10;;;;;;;;;;;;;;;17.86;42.22;97454.28;10202001;28;1959;-69
2024/02/23 15:05:07;;;;;;;;;;;;;;;17.84;42.34;97459.69;10202256;28;840;-69
2024/02/23 15:10:07;;;;;;;;;;;;;;;17.85;42.25;97464.00;10202361;28;793;-69
2024/02/23 15:15:03;;;;;;;;;;;;;;;17.82;42.19;97466.88;10203406;28;861;-69
2024/02/23 15:19:59;;;;;;;;;;;;;;;17.82;42.34;97466.88;10201346;28;1898;-69
2024/02/23 15:24:58;;;;;;;;;;;;;;;17.82;42.31;97466.06;10201331;28;885;-69
2024/02/23 15:29:54;;;;;;;;;;;;;;;17.80;42.08;97460.88;10202098;28;1623;-69
2024/02/23 15:34:50;;;;;;;;;;;;;;;17.81;42.17;97461.72;10202851;28;881;-69
2024/02/23 15:39:47;;;;;;;;;;;;;;;17.82;42.24;97466.06;10201520;28;1976;-70
2024/02/23 15:44:43;;;;;;;;;;;;;;;17.80;42.22;97457.41;10201269;28;905;-69
2024/02/23 15:49:39;;;;;;;;;;;;;;;17.81;42.27;97461.72;10201250;28;762;-69
2024/02/23 15:54:35;;;;;;;;;;;;;;;17.81;42.34;97467.00;10200465;28;1024;-69
2024/02/23 15:59:31;;;;;;;;;;;;;;;17.81;42.38;97464.34;10200915;28;1902;-69
2024/02/23 16:04:27;;;;;;;;;;;;;;;17.80;42.42;97460.06;10200768;28;863;-71
2024/02/23 16:09:23;;;;;;;;;;;;;;;17.80;42.35;97481.13;10200425;28;850;-66
2024/02/23 16:14:19;;;;;;;;;;;;;;;17.81;42.17;97474.91;10200828;28;956;-69
2024/02/23 16:19:14;;;;;;;;;;;;;;;17.78;42.40;97480.38;10308030;28;1898;-69
2024/02/23 16:24:10;;;;;;;;;;;;;;;17.75;42.54;97476.19;10369142;28;805;-70
2024/02/23 16:29:06;;;;;;;;;;;;;;;17.74;42.32;97475.34;10368786;28;1327;-70
2024/02/23 16:34:02;;;;;;;;;;;;;;;17.74;42.44;97470.09;10368683;28;886;-70
2024/02/23 16:38:58;;;;;;;;;;;;;;;17.73;42.45;97481.56;10368501;28;1906;-70
2024/02/23 16:43:54;;;;;;;;;;;;;;;17.73;42.61;97481.56;10368398;28;769;-70
2024/02/23 16:48:50;;;;;;;;;;;;;;;17.73;42.76;97491.28;10369249;28;873;-70
2024/02/23 16:53:46;;;;;;;;;;;;;;;17.72;42.50;97487.81;10368646;28;818;-69
2024/02/23 16:58:42;;;;;;;;;;;;;;;17.73;42.59;97489.47;10367800;28;840;-67
2024/02/23 17:03:38;;;;;;;;;;;;;;;17.72;42.64;97493.06;10367458;28;1882;-70
2024/02/23 17:08:34;;;;;;;;;;;;;;;17.73;42.60;97500.00;10367372;28;928;-70
2024/02/23 17:13:30;;;;;;;;;;;;;;;17.74;42.88;97495.59;10366953;28;973;-70
2024/02/23 17:18:27;;;;;;;;;;;;;;;17.75;42.96;97503.38;10367720;28;818;-70
2024/02/23 17:23:23;;;;;;;;;;;;;;;17.75;43.10;97524.44;10366923;28;1897;-70
2024/02/23 17:28:19;;;;;;;;;;;;;;;17.75;42.98;97521.81;10366693;28;1202;-69
2024/02/23 17:33:15;;;;;;;;;;;;;;;17.77;43.06;97523.50;10366700;28;960;-70
2024/02/23 17:38:11;;;;;;;;;;;;;;;17.78;42.97;97527.81;10366394;28;777;-70
2024/02/23 17:43:07;;;;;;;;;;;;;;;17.79;42.92;97524.19;10366312;28;1909;-71
2024/02/23 17:48:03;;;;;;;;;;;;;;;17.78;42.79;97539.19;10366720;28;798;-71
2024/02/23 17:52:59;;;;;;;;;;;;;;;17.80;42.91;97531.19;10366647;28;841;-70
2024/02/23 17:57:55;;;;;;;;;;;;;;;17.78;42.92;97528.63;10365956;28;790;-71
2024/02/23 18:02:51;;;;;;;;;;;;;;;17.81;43.04;97533.69;10365765;28;1890;-71
2024/02/23 18:07:47;;;;;;;;;;;;;;;17.81;43.21;97525.78;10366370;28;918;-71
2024/02/23 18:12:42;;;;;;;;;;;;;;;17.82;42.96;97531.94;10366232;28;948;-70
2024/02/23 18:17:38;;;;;;;;;;;;;;;17.83;43.16;97530.97;10365023;28;861;-70
2024/02/23 18:22:34;;;;;;;;;;;;;;;17.83;43.05;97544.97;10365362;28;1890;-70
2024/02/23 18:27:30;;;;;;;;;;;;;;;17.85;43.07;97540.41;10366088;28;853;-71
2024/02/23 18:32:26;;;;;;;;;;;;;;;17.85;43.05;97545.69;10364403;28;1455;-71
2024/02/23 18:37:22;;;;;;;;;;;;;;;17.86;43.09;97551.78;10365168;28;876;-71
2024/02/23 18:42:18;;;;;;;;;;;;;;;17.87;43.08;97548.22;10365040;28;1910;-71
2024/02/23 18:47:14;;;;;;;;;;;;;;;17.88;43.17;97560.41;10365065;28;871;-71
2024/02/23 18:52:09;;;;;;;;;;;;;;;17.88;43.02;97560.41;10366643;28;941;-71
2024/02/23 18:57:05;;;;;;;;;;;;;;;17.89;43.14;97567.34;10372304;28;805;-71
2024/02/23 19:02:01;;;;;;;;;;;;;;;17.89;43.01;97575.25;10372013;28;1897;-71
2024/02/23 19:06:57;;;;;;;;;;;;;;;17.90;43.32;97569.06;10371933;28;868;-70
2024/02/23 19:11:53;;;;;;;;;;;;;;;17.92;43.13;97569.75;10371764;28;841;-70
2024/02/23 19:16:49;;;;;;;;;;;;;;;17.91;43.11;97566.28;10372013;28;906;-71
2024/02/23 19:21:45;;;;;;;;;;;;;;;17.91;43.37;97566.28;10370983;28;2031;-70
2024/02/23 19:26:42;;;;;;;;;;;;;;;17.92;43.58;97570.59;10371890;28;990;-70
2024/02/23 19:31:38;;;;;;;;;;;;;;;17.93;43.34;97571.44;10371134;28;1231;-70
2024/02/23 19:36:34;;;;;;;;;;;;;;;17.93;43.30;97580.19;10370782;28;906;-70
2024/02/23 19:41:31;;;;;;;;;;;;;;;17.94;43.26;97579.22;10370432;28;1914;-70
2024/02/23 19:46:27;;;;;;;;;;;;;;;17.95;43.44;97577.44;10370402;28;774;-70
2024/02/23 19:51:23;;;;;;;;;;;;;;;17.96;43.37;97590.47;10369620;28;896;-70
2024/02/23 19:56:19;;;;;;;;;;;;;;;17.96;43.32;97597.56;10369363;28;1007;-70
2024/02/23 20:01:14;;;;;;;;;;;;;;;17.97;43.35;97607.13;10369799;28;1955;-70
2024/02/23 20:06:12;;;;;;;;;;;;;;;17.98;43.29;97613.25;10369218;28;858;-70
2024/02/23 20:11:08;;;;;;;;;;;;;;;17.98;43.25;97595.66;10369934;28;789;-71
2024/02/23 20:16:04;;;;;;;;;;;;;;;17.99;43.34;97605.22;10369160;28;758;-71
2024/02/23 20:21:00;;;;;;;;;;;;;;;17.99;43.21;97596.47;10369669;28;1889;-71
2024/02/23 20:25:55;;;;;;;;;;;;;;;17.98;43.37;97615.91;10368255;28;885;-71
2024/02/23 20:30:53;;;;;;;;;;;;;;;17.99;43.38;97614.94;10368728;28;1319;-71
2024/02/23 20:35:49;;;;;;;;;;;;;;;17.98;43.20;97614.09;10369043;28;822;-71
2024/02/23 20:40:46;;;;;;;;;;;;;;;17.98;43.38;97623.81;10368254;28;1909;-71
2024/02/23 20:45:42;;;;;;;;;;;;;;;17.95;43.16;97620.44;10368893;28;871;-71
2024/02/23 20:50:38;;;;;;;;;;;;;;;17.96;43.23;97616.00;10367332;28;943;-71
2024/02/23 20:55:34;;;;;;;;;;;;;;;17.94;43.37;97621.38;10367721;28;986;-71
2024/02/23 21:00:30;;;;;;;;;;;;;;;17.93;43.26;97616.25;10367456;28;1897;-71
2024/02/23 21:05:25;;;;;;;;;;;;;;;17.94;43.29;97617.91;10366763;28;1349;-71
2024/02/23 21:10:21;;;;;;;;;;;;;;;17.93;43.32;97621.53;10367232;28;837;-71
2024/02/23 21:15:17;;;;;;;;;;;;;;;17.91;43.26;97618.16;10366932;28;797;-71
2024/02/23 21:20:13;;;;;;;;;;;;;;;17.91;43.22;97618.16;10367062;28;1960;-71
2024/02/23 21:25:09;;;;;;;;;;;;;;;17.90;43.27;97617.31;10366937;28;873;-70
2024/02/23 21:30:06;;;;;;;;;;;;;;;17.90;43.46;97630.50;10366266;28;1435;-79
2024/02/23 21:35:02;;;;;;;;;;;;;;;17.88;43.44;97628.94;10367253;28;869;-79
2024/02/23 21:39:58;;;;;;;;;;;;;;;17.88;43.37;97613.13;10366593;28;1964;-79
2024/02/23 21:44:53;;;;;;;;;;;;;;;17.87;43.46;97616.75;10367105;28;848;-79
2024/02/23 21:49:49;;;;;;;;;;;;;;;17.86;43.35;97617.69;10366480;28;920;-79
2024/02/23 21:54:45;;;;;;;;;;;;;;;17.85;43.09;97622.13;10366368;28;758;-79
2024/02/23 21:59:41;;;;;;;;;;;;;;;17.83;43.18;97616.13;10366262;28;1901;-79
2024/02/23 22:04:39;;;;;;;;;;;;;;;17.83;43.45;97623.19;10366149;28;805;-79
2024/02/23 22:09:35;;;;;;;;;;;;;;;17.81;43.39;97625.09;10366013;28;893;-79
2024/02/23 22:14:31;;;;;;;;;;;;;;;17.79;43.33;97627.88;10365404;28;837;-79
2024/02/23 22:19:27;;;;;;;;;;;;;;;17.77;43.54;97631.53;10365155;28;1901;-79
2024/02/23 22:24:23;;;;;;;;;;;;;;;17.75;43.23;97629.00;10365749;28;988;-79
2024/02/23 22:29:19;;;;;;;;;;;;;;;17.76;43.26;97625.41;10372034;28;1395;-78
2024/02/23 22:34:16;;;;;;;;;;;;;;;17.74;43.37;97624.72;10373633;28;904;-79
2024/02/23 22:39:13;;;;;;;;;;;;;;;17.72;43.28;97619.53;10373298;28;1986;-79
2024/02/23 22:44:09;;;;;;;;;;;;;;;17.72;43.37;97621.34;10373119;28;909;-79
2024/02/23 22:49:05;;;;;;;;;;;;;;;17.70;43.22;97623.25;10373019;28;874;-79
2024/02/23 22:54:00;;;;;;;;;;;;;;;17.69;43.39;97611.88;10373395;28;965;-79
2024/02/23 22:58:56;;;;;;;;;;;;;;;17.68;43.33;97625.16;10373491;28;788;-79
2024/02/23 23:03:52;;;;;;;;;;;;;;;17.67;43.48;97619.06;10372449;28;1877;-78
2024/02/23 23:08:48;;;;;;;;;;;;;;;17.66;43.43;97629.72;10372179;28;857;-79
2024/02/23 23:13:45;;;;;;;;;;;;;;;17.64;43.53;97629.00;10372054;28;947;-78
2024/02/23 23:18:40;;;;;;;;;;;;;;;17.63;43.40;97622.91;10372418;28;847;-78
2024/02/23 23:23:36;;;;;;;;;;;;;;;17.63;43.48;97620.28;10372231;28;1906;-78
2024/02/23 23:28:32;;;;;;;;;;;;;;;17.61;43.54;97637.97;10372002;28;1351;-78
2024/02/23 23:33:28;;;;;;;;;;;;;;;17.61;43.51;97643.25;10371682;28;898;-79
2024/02/23 23:38:24;;;;;;;;;;;;;;;17.60;43.47;97635.44;10370352;28;868;-79
2024/02/23 23:43:20;;;;;;;;;;;;;;;17.60;43.45;97653.88;10370300;28;1910;-79
2024/02/23 23:48:16;;;;;;;;;;;;;;;17.59;43.57;97649.59;10370649;28;780;-79
2024/02/23 23:53:12;;;;;;;;;;;;;;;17.58;43.53;97643.50;10370355;28;1089;-79
2024/02/23 23:58:08;;;;;;;;;;;;;;;17.56;43.31;97640.13;10370514;28;950;-79
